createdAt,value
2023-04-02T00:00:09.267Z,2.00
2023-04-02T00:05:54.414Z,1.80
2023-04-02T00:11:02.009Z,1.70
2023-04-02T00:16:07.238Z,1.50
2023-04-02T00:21:26.166Z,2.20
2023-04-02T00:26:40.545Z,2.10
2023-04-02T00:31:45.245Z,2.30
2023-04-02T00:36:48.945Z,2.20
2023-04-02T00:41:58.305Z,2.20
2023-04-02T00:47:16.760Z,1.60
2023-04-02T00:52:25.330Z,2.10
2023-04-02T00:57:27.813Z,2.40
2023-04-02T01:02:33.748Z,2.80
2023-04-02T01:07:42.911Z,2.50
2023-04-02T01:12:55.240Z,2.00
2023-04-02T01:18:05.969Z,2.30
2023-04-02T01:23:14.078Z,1.80
2023-04-02T01:28:26.896Z,2.30
2023-04-02T01:33:34.075Z,3.20
2023-04-02T01:38:47.450Z,2.60
2023-04-02T01:43:58.103Z,1.60
2023-04-02T01:49:03.917Z,2.70
2023-04-02T01:54:06.654Z,3.50
2023-04-02T01:59:19.820Z,2.90
2023-04-02T02:04:21.959Z,3.40
2023-04-02T02:09:28.484Z,3.60
2023-04-02T02:14:31.985Z,3.30
2023-04-02T02:20:01.132Z,4.00
2023-04-02T02:25:16.582Z,3.80
2023-04-02T02:30:30.939Z,3.80
2023-04-02T02:35:50.426Z,3.60
2023-04-02T02:40:57.167Z,3.20
2023-04-02T02:46:00.844Z,2.80
2023-04-02T02:51:09.038Z,2.10
2023-04-02T02:56:12.360Z,2.60
2023-04-02T03:01:14.499Z,3.00
2023-04-02T03:06:20.315Z,2.10
2023-04-02T03:11:49.299Z,2.80
2023-04-02T03:16:58.282Z,1.90
2023-04-02T03:22:12.342Z,1.70
2023-04-02T03:27:26.068Z,2.80
2023-04-02T03:32:37.991Z,2.30
2023-04-02T03:37:52.834Z,2.50
2023-04-02T03:43:27.060Z,1.90
2023-04-02T03:48:42.751Z,2.30
2023-04-02T03:53:46.405Z,2.20
2023-04-02T03:58:56.128Z,2.50
2023-04-02T04:04:10.631Z,1.60
2023-04-02T04:09:27.116Z,2.20
2023-04-02T04:14:34.958Z,2.00
2023-04-02T04:19:44.938Z,2.30
2023-04-02T04:24:47.853Z,1.70
2023-04-02T04:30:22.570Z,3.00
2023-04-02T04:35:39.219Z,2.80
2023-04-02T04:40:54.251Z,2.60
2023-04-02T04:46:05.987Z,2.90
2023-04-02T04:51:26.948Z,2.90
2023-04-02T04:56:31.593Z,2.90
2023-04-02T05:01:50.516Z,2.50
2023-04-02T05:07:04.742Z,2.20
2023-04-02T05:12:39.291Z,3.20
2023-04-02T05:17:55.268Z,1.90
2023-04-02T05:23:27.074Z,2.50
2023-04-02T05:28:47.500Z,3.40
2023-04-02T05:33:50.001Z,3.70
2023-04-02T05:38:54.047Z,6.40
2023-04-02T05:44:16.711Z,3.50
2023-04-02T05:49:43.315Z,3.40
2023-04-02T05:55:11.875Z,2.70
2023-04-02T06:00:20.140Z,2.70
2023-04-02T06:05:36.258Z,1.40
2023-04-02T06:11:13.492Z,2.20
2023-04-02T06:16:16.406Z,2.20
2023-04-02T06:21:22.068Z,2.90
2023-04-02T06:26:31.544Z,3.00
2023-04-02T06:31:44.379Z,2.10
2023-04-02T06:36:49.976Z,2.20
2023-04-02T06:42:00.757Z,2.30
2023-04-02T06:47:12.085Z,2.00
2023-04-02T06:52:23.624Z,2.20
2023-04-02T06:57:25.934Z,1.40
2023-04-02T07:02:33.923Z,1.30
2023-04-02T07:07:36.167Z,2.10
2023-04-02T07:12:38.765Z,2.60
2023-04-02T07:17:41.779Z,1.80
2023-04-02T07:22:46.935Z,2.00
2023-04-02T07:27:51.022Z,1.90
2023-04-02T07:32:53.208Z,2.10
2023-04-02T07:37:56.410Z,1.10
2023-04-02T07:42:58.517Z,1.80
2023-04-02T07:48:09.002Z,1.40
2023-04-02T07:53:37.688Z,2.20
2023-04-02T07:58:40.012Z,1.70
2023-04-02T08:03:42.631Z,1.70
2023-04-02T08:08:44.675Z,1.90
2023-04-02T08:13:46.992Z,1.70
2023-04-02T08:18:49.343Z,1.90
2023-04-02T08:23:52.263Z,2.70
2023-04-02T08:28:54.412Z,1.20
2023-04-02T08:33:56.589Z,1.80
2023-04-02T08:38:58.659Z,2.90
2023-04-02T08:44:39.125Z,3.10
2023-04-02T08:49:57.321Z,2.90
2023-04-02T08:55:02.676Z,2.90
2023-04-02T09:00:13.262Z,2.00
2023-04-02T09:05:20.485Z,2.30
2023-04-02T09:10:31.830Z,2.50
2023-04-02T09:15:36.601Z,2.30
2023-04-02T09:20:44.230Z,1.90
2023-04-02T09:26:03.719Z,2.70
2023-04-02T09:31:34.283Z,2.20
2023-04-02T09:36:39.658Z,2.30
2023-04-02T09:41:42.889Z,2.10
2023-04-02T09:47:00.043Z,2.00
2023-04-02T09:52:08.439Z,2.10
2023-04-02T09:57:28.406Z,2.10
2023-04-02T10:02:32.581Z,2.20
2023-04-02T10:07:49.176Z,1.90
2023-04-02T10:13:06.967Z,2.20
2023-04-02T10:18:41.684Z,1.70
2023-04-02T10:23:44.688Z,1.60
2023-04-02T10:29:10.195Z,1.90
2023-04-02T10:34:23.439Z,1.60
2023-04-02T10:39:39.820Z,1.80
2023-04-02T10:44:47.601Z,2.10
2023-04-02T10:49:58.552Z,1.40
2023-04-02T10:55:14.518Z,1.70
2023-04-02T11:00:34.589Z,1.50
2023-04-02T11:05:51.115Z,1.40
2023-04-02T11:10:58.318Z,1.20
2023-04-02T11:16:00.551Z,1.30
2023-04-02T11:21:07.018Z,1.40
2023-04-02T11:26:56.932Z,1.10
2023-04-02T11:32:25.068Z,1.80
2023-04-02T11:37:38.068Z,1.30
2023-04-02T11:42:48.897Z,1.00
2023-04-02T11:48:08.014Z,0.90
2023-04-02T11:53:14.032Z,1.20
2023-04-02T11:58:40.948Z,1.10
2023-04-02T12:04:08.365Z,0.90
2023-04-02T12:09:23.927Z,1.20
2023-04-02T12:14:45.432Z,1.30
2023-04-02T12:19:53.944Z,1.00
2023-04-02T12:25:06.257Z,0.80
2023-04-02T12:30:22.279Z,1.20
2023-04-02T12:35:34.109Z,1.20
2023-04-02T12:40:36.532Z,0.80
2023-04-02T12:45:38.994Z,0.70
2023-04-02T12:50:44.353Z,0.90
2023-04-02T12:56:02.148Z,0.70
2023-04-02T13:01:19.670Z,0.50
2023-04-02T13:06:32.823Z,0.40
2023-04-02T13:11:40.683Z,0.40
2023-04-02T13:16:44.104Z,0.60
2023-04-02T13:21:46.980Z,0.70
2023-04-02T13:26:55.522Z,0.50
2023-04-02T13:32:07.343Z,0.60
2023-04-02T13:37:12.856Z,0.50
2023-04-02T13:42:17.196Z,0.60
2023-04-02T13:47:19.757Z,0.90
2023-04-02T13:52:22.006Z,0.60
2023-04-02T13:57:24.273Z,0.80
2023-04-02T14:02:27.144Z,0.90
2023-04-02T14:07:50.583Z,0.40
2023-04-02T14:13:29.246Z,0.90
2023-04-02T14:18:56.562Z,0.50
2023-04-02T14:24:17.094Z,0.40
2023-04-02T14:29:47.945Z,0.50
2023-04-02T14:35:10.083Z,0.60
2023-04-02T14:40:45.892Z,0.40
2023-04-02T14:45:56.898Z,0.40
2023-04-02T14:51:09.948Z,0.80
2023-04-02T14:56:15.858Z,0.70
2023-04-02T15:01:27.215Z,0.70
2023-04-02T15:06:40.319Z,0.60
2023-04-02T15:11:49.481Z,0.60
2023-04-02T15:16:52.068Z,0.60
2023-04-02T15:22:14.230Z,0.50
2023-04-02T15:27:29.327Z,0.40
2023-04-02T15:32:34.456Z,0.60
2023-04-02T15:38:03.346Z,0.40
2023-04-02T15:43:31.428Z,0.50
2023-04-02T15:48:42.819Z,0.70
2023-04-02T15:54:04.253Z,0.40
2023-04-02T15:59:21.788Z,0.40
2023-04-02T16:04:35.949Z,0.60
2023-04-02T16:09:44.145Z,0.40
2023-04-02T16:14:49.312Z,0.70
2023-04-02T16:19:57.021Z,1.00
2023-04-02T16:25:18.701Z,0.60
2023-04-02T16:30:45.122Z,0.70
2023-04-02T16:35:56.868Z,0.60
2023-04-02T16:41:22.619Z,0.50
2023-04-02T16:46:40.360Z,0.50
2023-04-02T16:52:08.617Z,0.70
2023-04-02T16:57:32.415Z,0.40
2023-04-02T17:02:45.529Z,0.70
2023-04-02T17:08:18.133Z,0.80
2023-04-02T17:13:32.175Z,0.70
2023-04-02T17:18:35.117Z,2.40
2023-04-02T17:23:55.936Z,1.10
2023-04-02T17:29:05.775Z,0.40
2023-04-02T17:34:17.806Z,0.70
2023-04-02T17:39:36.251Z,1.10
2023-04-02T17:45:03.272Z,0.60
2023-04-02T17:50:14.660Z,0.60
2023-04-02T17:55:51.555Z,0.60
2023-04-02T18:01:09.649Z,0.60
2023-04-02T18:06:47.122Z,0.70
2023-04-02T18:11:52.383Z,0.20
2023-04-02T18:16:57.592Z,0.50
2023-04-02T18:22:22.253Z,0.50
2023-04-02T18:27:42.534Z,0.80
2023-04-02T18:33:00.198Z,0.60
2023-04-02T18:38:11.745Z,0.50
2023-04-02T18:43:42.701Z,0.70
2023-04-02T18:48:51.167Z,1.20
2023-04-02T18:54:09.492Z,0.70
2023-04-02T18:59:11.627Z,0.90
2023-04-02T19:04:20.434Z,0.40
2023-04-02T19:09:47.223Z,0.50
2023-04-02T19:14:51.133Z,0.60
2023-04-02T19:20:07.192Z,0.60
2023-04-02T19:25:34.633Z,0.40
2023-04-02T19:30:49.132Z,0.60
2023-04-02T19:36:25.572Z,0.50
2023-04-02T19:41:37.448Z,0.60
2023-04-02T19:46:40.378Z,0.60
2023-04-02T19:51:43.803Z,0.50
2023-04-02T19:56:46.068Z,0.80
2023-04-02T20:01:48.182Z,0.60
2023-04-02T20:06:51.357Z,0.90
2023-04-02T20:11:54.212Z,0.60
2023-04-02T20:16:56.341Z,0.40
2023-04-02T20:21:58.462Z,0.50
2023-04-02T20:27:00.721Z,0.70
2023-04-02T20:32:03.210Z,0.80
2023-04-02T20:37:06.268Z,0.60
2023-04-02T20:42:08.688Z,0.50
2023-04-02T20:47:11.006Z,0.70
2023-04-02T20:52:13.238Z,0.70
2023-04-02T20:57:15.346Z,0.50
2023-04-02T21:02:17.442Z,0.40
2023-04-02T21:07:19.747Z,0.70
2023-04-02T21:12:24.465Z,0.90
2023-04-02T21:17:27.163Z,0.70
2023-04-02T21:22:29.505Z,0.60
2023-04-02T21:27:31.599Z,0.50
2023-04-02T21:32:35.135Z,0.70
2023-04-02T21:37:37.932Z,0.30
2023-04-02T21:42:40.079Z,0.80
2023-04-02T21:47:42.214Z,0.80
2023-04-02T21:52:44.323Z,0.50
2023-04-02T21:57:46.314Z,0.80
2023-04-02T22:02:48.364Z,0.50
2023-04-02T22:07:50.465Z,0.70
2023-04-02T22:12:52.485Z,0.60
2023-04-02T22:17:59.920Z,0.50
2023-04-02T22:23:02.407Z,0.70
2023-04-02T22:28:04.569Z,0.50
2023-04-02T22:33:08.214Z,0.60
2023-04-02T22:38:10.728Z,0.40
2023-04-02T22:43:12.859Z,1.50
2023-04-02T22:48:15.076Z,0.50
2023-04-02T22:53:17.514Z,0.50
2023-04-02T22:58:20.732Z,0.60
2023-04-02T23:03:25.004Z,0.80
2023-04-02T23:08:26.975Z,0.80
2023-04-02T23:13:29.402Z,0.40
2023-04-02T23:18:33.333Z,0.90
2023-04-02T23:23:35.996Z,0.30
2023-04-02T23:28:40.243Z,0.40
2023-04-02T23:33:42.780Z,0.40
2023-04-02T23:38:44.843Z,0.50
2023-04-02T23:43:50.980Z,0.30
2023-04-02T23:48:54.237Z,0.40
2023-04-02T23:53:56.430Z,0.50
2023-04-02T23:58:58.409Z,0.20
